sensor_id;sensor_type;location;lat;lon;timestamp;P1;durP1;ratioP1;P2;durP2;ratioP2
14907;SDS011;7545;52.092;7.006;2024-03-17T00:00:55;6.40;;;3.77;;
14907;SDS011;7545;52.092;7.006;2024-03-17T00:03:24;5.93;;;3.63;;
14907;SDS011;7545;52.092;7.006;2024-03-17T00:05:54;5.53;;;3.80;;
14907;SDS011;7545;52.092;7.006;2024-03-17T00:08:24;8.07;;;4.10;;
14907;SDS011;7545;52.092;7.006;2024-03-17T00:10:50;5.43;;;3.23;;
14907;SDS011;7545;52.092;7.006;2024-03-17T00:13:16;8.13;;;3.43;;
14907;SDS011;7545;52.092;7.006;2024-03-17T00:15:42;4.53;;;2.80;;
14907;SDS011;7545;52.092;7.006;2024-03-17T00:18:08;5.63;;;2.90;;
14907;SDS011;7545;52.092;7.006;2024-03-17T00:20:35;4.07;;;3.07;;
14907;SDS011;7545;52.092;7.006;2024-03-17T00:23:04;4.70;;;2.90;;
14907;SDS011;7545;52.092;7.006;2024-03-17T00:25:34;6.97;;;3.03;;
14907;SDS011;7545;52.092;7.006;2024-03-17T00:28:04;4.50;;;3.23;;
14907;SDS011;7545;52.092;7.006;2024-03-17T00:30:29;5.73;;;2.70;;
14907;SDS011;7545;52.092;7.006;2024-03-17T00:32:56;3.57;;;2.70;;
14907;SDS011;7545;52.092;7.006;2024-03-17T00:35:23;5.33;;;3.20;;
14907;SDS011;7545;52.092;7.006;2024-03-17T00:37:49;5.17;;;2.77;;
14907;SDS011;7545;52.092;7.006;2024-03-17T00:40:15;7.03;;;2.83;;
14907;SDS011;7545;52.092;7.006;2024-03-17T00:42:42;6.13;;;3.13;;
14907;SDS011;7545;52.092;7.006;2024-03-17T00:45:08;5.40;;;2.77;;
14907;SDS011;7545;52.092;7.006;2024-03-17T00:47:35;4.03;;;2.70;;
14907;SDS011;7545;52.092;7.006;2024-03-17T00:50:01;5.40;;;3.43;;
14907;SDS011;7545;52.092;7.006;2024-03-17T00:52:30;7.27;;;2.53;;
14907;SDS011;7545;52.092;7.006;2024-03-17T00:54:56;5.17;;;2.67;;
14907;SDS011;7545;52.092;7.006;2024-03-17T00:57:21;4.87;;;2.63;;
14907;SDS011;7545;52.092;7.006;2024-03-17T00:59:47;3.90;;;2.80;;
14907;SDS011;7545;52.092;7.006;2024-03-17T01:02:13;5.60;;;2.90;;
14907;SDS011;7545;52.092;7.006;2024-03-17T01:04:44;4.27;;;2.40;;
14907;SDS011;7545;52.092;7.006;2024-03-17T01:07:10;8.17;;;3.27;;
14907;SDS011;7545;52.092;7.006;2024-03-17T01:09:37;3.97;;;2.77;;
14907;SDS011;7545;52.092;7.006;2024-03-17T01:12:03;4.33;;;2.53;;
14907;SDS011;7545;52.092;7.006;2024-03-17T01:14:29;3.87;;;2.20;;
14907;SDS011;7545;52.092;7.006;2024-03-17T01:16:55;7.50;;;2.10;;
14907;SDS011;7545;52.092;7.006;2024-03-17T01:19:22;5.23;;;1.90;;
14907;SDS011;7545;52.092;7.006;2024-03-17T01:21:48;2.87;;;2.13;;
14907;SDS011;7545;52.092;7.006;2024-03-17T01:24:13;6.70;;;2.13;;
14907;SDS011;7545;52.092;7.006;2024-03-17T01:26:39;5.47;;;2.50;;
14907;SDS011;7545;52.092;7.006;2024-03-17T01:29:05;6.40;;;1.93;;
14907;SDS011;7545;52.092;7.006;2024-03-17T01:31:30;3.67;;;1.90;;
14907;SDS011;7545;52.092;7.006;2024-03-17T01:33:56;6.80;;;2.17;;
14907;SDS011;7545;52.092;7.006;2024-03-17T01:36:21;3.33;;;2.10;;
14907;SDS011;7545;52.092;7.006;2024-03-17T01:38:47;8.77;;;2.30;;
14907;SDS011;7545;52.092;7.006;2024-03-17T01:41:13;9.73;;;2.47;;
14907;SDS011;7545;52.092;7.006;2024-03-17T01:43:39;2.20;;;1.67;;
14907;SDS011;7545;52.092;7.006;2024-03-17T01:46:05;4.07;;;1.80;;
14907;SDS011;7545;52.092;7.006;2024-03-17T01:48:32;3.67;;;1.70;;
14907;SDS011;7545;52.092;7.006;2024-03-17T01:50:58;4.17;;;2.10;;
14907;SDS011;7545;52.092;7.006;2024-03-17T01:53:24;3.53;;;1.73;;
14907;SDS011;7545;52.092;7.006;2024-03-17T01:55:50;3.17;;;1.83;;
14907;SDS011;7545;52.092;7.006;2024-03-17T01:58:21;6.30;;;2.00;;
14907;SDS011;7545;52.092;7.006;2024-03-17T02:00:50;3.13;;;1.83;;
14907;SDS011;7545;52.092;7.006;2024-03-17T02:03:17;2.63;;;1.30;;
14907;SDS011;7545;52.092;7.006;2024-03-17T02:05:43;3.63;;;2.00;;
14907;SDS011;7545;52.092;7.006;2024-03-17T02:08:09;3.53;;;1.70;;
14907;SDS011;7545;52.092;7.006;2024-03-17T02:10:36;4.00;;;2.10;;
14907;SDS011;7545;52.092;7.006;2024-03-17T02:13:02;6.47;;;2.17;;
14907;SDS011;7545;52.092;7.006;2024-03-17T02:15:29;3.47;;;2.00;;
14907;SDS011;7545;52.092;7.006;2024-03-17T02:17:55;3.00;;;1.60;;
14907;SDS011;7545;52.092;7.006;2024-03-17T02:20:21;2.53;;;1.77;;
14907;SDS011;7545;52.092;7.006;2024-03-17T02:23:07;4.53;;;2.13;;
14907;SDS011;7545;52.092;7.006;2024-03-17T02:25:32;5.23;;;1.70;;
14907;SDS011;7545;52.092;7.006;2024-03-17T02:27:58;2.70;;;2.00;;
14907;SDS011;7545;52.092;7.006;2024-03-17T02:30:24;3.93;;;2.10;;
14907;SDS011;7545;52.092;7.006;2024-03-17T02:32:53;4.93;;;2.50;;
14907;SDS011;7545;52.092;7.006;2024-03-17T02:35:19;6.70;;;2.40;;
14907;SDS011;7545;52.092;7.006;2024-03-17T02:37:49;5.30;;;2.20;;
14907;SDS011;7545;52.092;7.006;2024-03-17T02:40:14;4.90;;;2.60;;
14907;SDS011;7545;52.092;7.006;2024-03-17T02:42:41;8.03;;;2.90;;
14907;SDS011;7545;52.092;7.006;2024-03-17T02:45:08;5.43;;;2.40;;
14907;SDS011;7545;52.092;7.006;2024-03-17T02:47:34;2.70;;;1.80;;
14907;SDS011;7545;52.092;7.006;2024-03-17T02:49:59;4.83;;;2.23;;
14907;SDS011;7545;52.092;7.006;2024-03-17T02:52:26;3.87;;;2.40;;
14907;SDS011;7545;52.092;7.006;2024-03-17T02:54:51;4.77;;;2.33;;
14907;SDS011;7545;52.092;7.006;2024-03-17T02:57:18;3.63;;;2.23;;
14907;SDS011;7545;52.092;7.006;2024-03-17T02:59:43;6.90;;;2.20;;
14907;SDS011;7545;52.092;7.006;2024-03-17T03:02:11;4.60;;;2.40;;
14907;SDS011;7545;52.092;7.006;2024-03-17T03:04:37;5.33;;;2.70;;
14907;SDS011;7545;52.092;7.006;2024-03-17T03:07:02;3.67;;;2.00;;
14907;SDS011;7545;52.092;7.006;2024-03-17T03:09:28;3.57;;;2.37;;
14907;SDS011;7545;52.092;7.006;2024-03-17T03:11:59;5.10;;;2.20;;
14907;SDS011;7545;52.092;7.006;2024-03-17T03:14:27;2.30;;;1.83;;
14907;SDS011;7545;52.092;7.006;2024-03-17T03:16:53;7.60;;;2.17;;
14907;SDS011;7545;52.092;7.006;2024-03-17T03:19:19;3.10;;;2.17;;
14907;SDS011;7545;52.092;7.006;2024-03-17T03:21:45;5.43;;;1.90;;
14907;SDS011;7545;52.092;7.006;2024-03-17T03:24:11;2.57;;;1.93;;
14907;SDS011;7545;52.092;7.006;2024-03-17T03:26:39;5.03;;;2.83;;
14907;SDS011;7545;52.092;7.006;2024-03-17T03:29:04;6.37;;;2.07;;
14907;SDS011;7545;52.092;7.006;2024-03-17T03:31:31;4.83;;;2.40;;
14907;SDS011;7545;52.092;7.006;2024-03-17T03:33:57;6.63;;;2.60;;
14907;SDS011;7545;52.092;7.006;2024-03-17T03:36:26;2.53;;;2.07;;
14907;SDS011;7545;52.092;7.006;2024-03-17T03:38:52;5.27;;;2.67;;
14907;SDS011;7545;52.092;7.006;2024-03-17T03:41:18;2.30;;;2.00;;
14907;SDS011;7545;52.092;7.006;2024-03-17T03:43:44;6.63;;;2.67;;
14907;SDS011;7545;52.092;7.006;2024-03-17T03:46:12;6.93;;;2.20;;
14907;SDS011;7545;52.092;7.006;2024-03-17T03:48:38;2.50;;;1.90;;
14907;SDS011;7545;52.092;7.006;2024-03-17T03:51:04;2.77;;;2.00;;
14907;SDS011;7545;52.092;7.006;2024-03-17T03:53:34;3.77;;;2.10;;
14907;SDS011;7545;52.092;7.006;2024-03-17T03:56:04;6.57;;;2.40;;
14907;SDS011;7545;52.092;7.006;2024-03-17T03:58:35;7.80;;;1.57;;
14907;SDS011;7545;52.092;7.006;2024-03-17T04:01:05;3.37;;;1.90;;
14907;SDS011;7545;52.092;7.006;2024-03-17T04:03:31;1.97;;;1.57;;
14907;SDS011;7545;52.092;7.006;2024-03-17T04:08:29;3.70;;;1.70;;
14907;SDS011;7545;52.092;7.006;2024-03-17T04:10:55;2.13;;;1.77;;
14907;SDS011;7545;52.092;7.006;2024-03-17T04:13:21;5.00;;;2.13;;
14907;SDS011;7545;52.092;7.006;2024-03-17T04:15:47;1.83;;;1.53;;
14907;SDS011;7545;52.092;7.006;2024-03-17T04:18:13;5.70;;;2.10;;
14907;SDS011;7545;52.092;7.006;2024-03-17T04:20:40;5.00;;;2.03;;
14907;SDS011;7545;52.092;7.006;2024-03-17T04:23:06;2.80;;;1.70;;
14907;SDS011;7545;52.092;7.006;2024-03-17T04:25:32;3.47;;;2.13;;
14907;SDS011;7545;52.092;7.006;2024-03-17T04:27:58;2.20;;;1.80;;
14907;SDS011;7545;52.092;7.006;2024-03-17T04:30:23;3.30;;;2.33;;
14907;SDS011;7545;52.092;7.006;2024-03-17T04:32:49;7.70;;;1.70;;
14907;SDS011;7545;52.092;7.006;2024-03-17T04:35:15;3.40;;;2.23;;
14907;SDS011;7545;52.092;7.006;2024-03-17T04:37:41;4.17;;;1.97;;
14907;SDS011;7545;52.092;7.006;2024-03-17T04:40:07;2.60;;;1.90;;
14907;SDS011;7545;52.092;7.006;2024-03-17T04:42:34;2.67;;;1.60;;
14907;SDS011;7545;52.092;7.006;2024-03-17T04:45:00;2.30;;;1.63;;
14907;SDS011;7545;52.092;7.006;2024-03-17T04:47:26;3.60;;;1.70;;
14907;SDS011;7545;52.092;7.006;2024-03-17T04:49:51;3.80;;;1.90;;
14907;SDS011;7545;52.092;7.006;2024-03-17T04:52:17;2.63;;;2.03;;
14907;SDS011;7545;52.092;7.006;2024-03-17T04:54:43;5.43;;;1.90;;
14907;SDS011;7545;52.092;7.006;2024-03-17T04:57:09;2.10;;;1.70;;
14907;SDS011;7545;52.092;7.006;2024-03-17T04:59:34;3.80;;;1.70;;
14907;SDS011;7545;52.092;7.006;2024-03-17T05:02:00;3.50;;;2.17;;
14907;SDS011;7545;52.092;7.006;2024-03-17T05:04:27;6.27;;;2.30;;
14907;SDS011;7545;52.092;7.006;2024-03-17T05:06:53;3.97;;;1.93;;
14907;SDS011;7545;52.092;7.006;2024-03-17T05:09:18;2.37;;;2.10;;
14907;SDS011;7545;52.092;7.006;2024-03-17T05:11:44;2.13;;;1.80;;
14907;SDS011;7545;52.092;7.006;2024-03-17T05:14:10;2.43;;;1.67;;
14907;SDS011;7545;52.092;7.006;2024-03-17T05:16:36;7.90;;;2.40;;
14907;SDS011;7545;52.092;7.006;2024-03-17T05:19:02;4.73;;;2.60;;
14907;SDS011;7545;52.092;7.006;2024-03-17T05:21:28;5.20;;;2.27;;
14907;SDS011;7545;52.092;7.006;2024-03-17T05:23:55;3.17;;;2.00;;
14907;SDS011;7545;52.092;7.006;2024-03-17T05:26:22;6.93;;;2.50;;
14907;SDS011;7545;52.092;7.006;2024-03-17T05:28:47;6.80;;;2.57;;
14907;SDS011;7545;52.092;7.006;2024-03-17T05:31:13;5.07;;;2.50;;
14907;SDS011;7545;52.092;7.006;2024-03-17T05:33:42;6.13;;;2.60;;
14907;SDS011;7545;52.092;7.006;2024-03-17T05:36:09;3.50;;;2.47;;
14907;SDS011;7545;52.092;7.006;2024-03-17T05:38:34;4.43;;;2.60;;
14907;SDS011;7545;52.092;7.006;2024-03-17T05:41:01;4.57;;;2.30;;
14907;SDS011;7545;52.092;7.006;2024-03-17T05:43:28;5.20;;;2.53;;
14907;SDS011;7545;52.092;7.006;2024-03-17T05:45:59;4.73;;;2.73;;
14907;SDS011;7545;52.092;7.006;2024-03-17T05:48:26;6.73;;;3.00;;
14907;SDS011;7545;52.092;7.006;2024-03-17T05:50:52;6.27;;;3.33;;
14907;SDS011;7545;52.092;7.006;2024-03-17T05:53:18;6.10;;;4.07;;
14907;SDS011;7545;52.092;7.006;2024-03-17T05:55:45;5.20;;;3.50;;
14907;SDS011;7545;52.092;7.006;2024-03-17T05:58:11;6.07;;;4.13;;
14907;SDS011;7545;52.092;7.006;2024-03-17T06:00:37;10.00;;;4.07;;
14907;SDS011;7545;52.092;7.006;2024-03-17T06:03:04;6.67;;;4.10;;
14907;SDS011;7545;52.092;7.006;2024-03-17T06:05:34;5.13;;;3.60;;
14907;SDS011;7545;52.092;7.006;2024-03-17T06:08:00;10.73;;;4.80;;
14907;SDS011;7545;52.092;7.006;2024-03-17T06:10:28;10.40;;;4.97;;
14907;SDS011;7545;52.092;7.006;2024-03-17T06:12:54;8.10;;;4.67;;
14907;SDS011;7545;52.092;7.006;2024-03-17T06:15:21;6.03;;;4.50;;
14907;SDS011;7545;52.092;7.006;2024-03-17T06:17:48;6.93;;;4.87;;
14907;SDS011;7545;52.092;7.006;2024-03-17T06:20:14;8.77;;;4.80;;
14907;SDS011;7545;52.092;7.006;2024-03-17T06:22:41;8.50;;;4.67;;
14907;SDS011;7545;52.092;7.006;2024-03-17T06:25:06;8.37;;;5.37;;
14907;SDS011;7545;52.092;7.006;2024-03-17T06:27:32;7.53;;;4.63;;
14907;SDS011;7545;52.092;7.006;2024-03-17T06:30:01;12.27;;;5.47;;
14907;SDS011;7545;52.092;7.006;2024-03-17T06:32:30;7.47;;;5.13;;
14907;SDS011;7545;52.092;7.006;2024-03-17T06:34:59;7.70;;;5.43;;
14907;SDS011;7545;52.092;7.006;2024-03-17T06:37:26;11.60;;;6.17;;
14907;SDS011;7545;52.092;7.006;2024-03-17T06:39:52;7.00;;;5.10;;
14907;SDS011;7545;52.092;7.006;2024-03-17T06:42:18;8.93;;;5.50;;
14907;SDS011;7545;52.092;7.006;2024-03-17T06:44:44;11.07;;;6.00;;
14907;SDS011;7545;52.092;7.006;2024-03-17T06:47:10;9.90;;;5.37;;
14907;SDS011;7545;52.092;7.006;2024-03-17T06:49:35;9.00;;;5.93;;
14907;SDS011;7545;52.092;7.006;2024-03-17T06:52:01;8.87;;;5.67;;
14907;SDS011;7545;52.092;7.006;2024-03-17T06:54:27;8.73;;;5.60;;
14907;SDS011;7545;52.092;7.006;2024-03-17T06:56:52;6.77;;;4.90;;
14907;SDS011;7545;52.092;7.006;2024-03-17T06:59:18;10.30;;;5.67;;
14907;SDS011;7545;52.092;7.006;2024-03-17T07:01:45;8.87;;;5.73;;
14907;SDS011;7545;52.092;7.006;2024-03-17T07:04:12;7.90;;;5.80;;
14907;SDS011;7545;52.092;7.006;2024-03-17T07:06:38;6.03;;;5.17;;
14907;SDS011;7545;52.092;7.006;2024-03-17T07:09:03;5.73;;;4.47;;
14907;SDS011;7545;52.092;7.006;2024-03-17T07:11:29;7.27;;;4.73;;
14907;SDS011;7545;52.092;7.006;2024-03-17T07:13:54;8.30;;;4.97;;
14907;SDS011;7545;52.092;7.006;2024-03-17T07:16:20;8.20;;;4.37;;
14907;SDS011;7545;52.092;7.006;2024-03-17T07:18:50;7.23;;;4.93;;
14907;SDS011;7545;52.092;7.006;2024-03-17T07:21:17;9.73;;;4.70;;
14907;SDS011;7545;52.092;7.006;2024-03-17T07:23:43;10.43;;;4.67;;
14907;SDS011;7545;52.092;7.006;2024-03-17T07:26:09;10.27;;;4.50;;
14907;SDS011;7545;52.092;7.006;2024-03-17T07:28:34;6.77;;;4.80;;
14907;SDS011;7545;52.092;7.006;2024-03-17T07:31:00;7.57;;;5.33;;
14907;SDS011;7545;52.092;7.006;2024-03-17T07:33:26;9.50;;;4.87;;
14907;SDS011;7545;52.092;7.006;2024-03-17T07:35:53;8.90;;;5.40;;
14907;SDS011;7545;52.092;7.006;2024-03-17T07:38:20;11.53;;;5.20;;
14907;SDS011;7545;52.092;7.006;2024-03-17T07:40:55;6.50;;;4.90;;
14907;SDS011;7545;52.092;7.006;2024-03-17T07:43:22;9.60;;;4.93;;
14907;SDS011;7545;52.092;7.006;2024-03-17T07:45:56;7.53;;;4.90;;
14907;SDS011;7545;52.092;7.006;2024-03-17T07:48:23;8.63;;;5.77;;
14907;SDS011;7545;52.092;7.006;2024-03-17T07:50:55;9.70;;;6.10;;
14907;SDS011;7545;52.092;7.006;2024-03-17T07:53:26;8.13;;;5.33;;
14907;SDS011;7545;52.092;7.006;2024-03-17T07:56:02;11.30;;;5.57;;
14907;SDS011;7545;52.092;7.006;2024-03-17T07:58:29;9.00;;;5.37;;
14907;SDS011;7545;52.092;7.006;2024-03-17T08:01:14;7.47;;;6.10;;
14907;SDS011;7545;52.092;7.006;2024-03-17T08:03:42;12.70;;;5.43;;
14907;SDS011;7545;52.092;7.006;2024-03-17T08:06:10;8.47;;;5.50;;
14907;SDS011;7545;52.092;7.006;2024-03-17T08:08:36;7.70;;;5.63;;
14907;SDS011;7545;52.092;7.006;2024-03-17T08:11:02;9.57;;;5.87;;
14907;SDS011;7545;52.092;7.006;2024-03-17T08:13:28;6.63;;;5.20;;
14907;SDS011;7545;52.092;7.006;2024-03-17T08:15:59;7.80;;;5.23;;
14907;SDS011;7545;52.092;7.006;2024-03-17T08:18:30;7.20;;;5.23;;
14907;SDS011;7545;52.092;7.006;2024-03-17T08:20:56;9.53;;;5.07;;
14907;SDS011;7545;52.092;7.006;2024-03-17T08:23:22;6.47;;;4.53;;
14907;SDS011;7545;52.092;7.006;2024-03-17T08:25:55;7.17;;;4.97;;
14907;SDS011;7545;52.092;7.006;2024-03-17T08:28:22;8.40;;;4.70;;
14907;SDS011;7545;52.092;7.006;2024-03-17T08:30:52;6.30;;;5.00;;
14907;SDS011;7545;52.092;7.006;2024-03-17T08:33:21;6.23;;;4.90;;
14907;SDS011;7545;52.092;7.006;2024-03-17T08:36:01;6.87;;;5.13;;
14907;SDS011;7545;52.092;7.006;2024-03-17T08:38:32;6.63;;;4.90;;
14907;SDS011;7545;52.092;7.006;2024-03-17T08:41:16;8.53;;;4.50;;
14907;SDS011;7545;52.092;7.006;2024-03-17T08:43:42;7.30;;;4.37;;
14907;SDS011;7545;52.092;7.006;2024-03-17T08:46:08;5.68;;;4.07;;
14907;SDS011;7545;52.092;7.006;2024-03-17T08:48:36;7.30;;;4.50;;
14907;SDS011;7545;52.092;7.006;2024-03-17T08:51:03;4.90;;;4.10;;
14907;SDS011;7545;52.092;7.006;2024-03-17T08:53:30;6.18;;;4.38;;
14907;SDS011;7545;52.092;7.006;2024-03-17T08:55:56;7.30;;;4.18;;
14907;SDS011;7545;52.092;7.006;2024-03-17T08:58:23;8.98;;;4.30;;
14907;SDS011;7545;52.092;7.006;2024-03-17T09:00:49;6.68;;;4.53;;
14907;SDS011;7545;52.092;7.006;2024-03-17T09:03:16;9.93;;;4.07;;
14907;SDS011;7545;52.092;7.006;2024-03-17T09:05:42;6.28;;;4.07;;
14907;SDS011;7545;52.092;7.006;2024-03-17T09:08:16;8.80;;;4.43;;
14907;SDS011;7545;52.092;7.006;2024-03-17T09:10:45;4.97;;;3.53;;
14907;SDS011;7545;52.092;7.006;2024-03-17T09:13:15;5.30;;;3.83;;
14907;SDS011;7545;52.092;7.006;2024-03-17T09:15:55;5.88;;;4.43;;
14907;SDS011;7545;52.092;7.006;2024-03-17T09:18:21;6.05;;;3.45;;
14907;SDS011;7545;52.092;7.006;2024-03-17T09:20:57;7.82;;;4.07;;
14907;SDS011;7545;52.092;7.006;2024-03-17T09:23:24;7.65;;;4.05;;
14907;SDS011;7545;52.092;7.006;2024-03-17T09:25:54;5.18;;;4.07;;
14907;SDS011;7545;52.092;7.006;2024-03-17T09:28:28;4.50;;;3.55;;
14907;SDS011;7545;52.092;7.006;2024-03-17T09:30:55;6.00;;;3.28;;
14907;SDS011;7545;52.092;7.006;2024-03-17T09:33:22;4.70;;;3.33;;
14907;SDS011;7545;52.092;7.006;2024-03-17T09:36:01;10.93;;;4.03;;
14907;SDS011;7545;52.092;7.006;2024-03-17T09:38:28;6.38;;;3.25;;
14907;SDS011;7545;52.092;7.006;2024-03-17T09:40:55;4.18;;;2.78;;
14907;SDS011;7545;52.092;7.006;2024-03-17T09:43:26;4.05;;;3.03;;
14907;SDS011;7545;52.092;7.006;2024-03-17T09:45:52;4.50;;;3.65;;
14907;SDS011;7545;52.092;7.006;2024-03-17T09:48:22;3.72;;;2.85;;
14907;SDS011;7545;52.092;7.006;2024-03-17T09:50:52;5.65;;;3.45;;
14907;SDS011;7545;52.092;7.006;2024-03-17T09:56:00;2.63;;;2.42;;
14907;SDS011;7545;52.092;7.006;2024-03-17T09:58:26;4.43;;;3.20;;
14907;SDS011;7545;52.092;7.006;2024-03-17T10:00:52;4.53;;;3.20;;
14907;SDS011;7545;52.092;7.006;2024-03-17T10:03:38;3.78;;;3.05;;
14907;SDS011;7545;52.092;7.006;2024-03-17T10:06:05;3.70;;;2.78;;
14907;SDS011;7545;52.092;7.006;2024-03-17T10:08:31;7.20;;;3.50;;
14907;SDS011;7545;52.092;7.006;2024-03-17T10:10:59;3.65;;;2.92;;
14907;SDS011;7545;52.092;7.006;2024-03-17T10:13:25;4.07;;;3.05;;
14907;SDS011;7545;52.092;7.006;2024-03-17T10:15:50;4.50;;;3.50;;
14907;SDS011;7545;52.092;7.006;2024-03-17T10:18:22;4.90;;;2.95;;
14907;SDS011;7545;52.092;7.006;2024-03-17T10:20:48;4.53;;;3.13;;
14907;SDS011;7545;52.092;7.006;2024-03-17T10:23:20;5.32;;;3.42;;
14907;SDS011;7545;52.092;7.006;2024-03-17T10:25:45;4.68;;;3.17;;
14907;SDS011;7545;52.092;7.006;2024-03-17T10:28:11;3.92;;;2.83;;
14907;SDS011;7545;52.092;7.006;2024-03-17T10:30:38;4.40;;;3.00;;
14907;SDS011;7545;52.092;7.006;2024-03-17T10:33:05;3.85;;;1.95;;
14907;SDS011;7545;52.092;7.006;2024-03-17T10:35:37;3.13;;;2.10;;
14907;SDS011;7545;52.092;7.006;2024-03-17T10:38:07;3.47;;;2.72;;
14907;SDS011;7545;52.092;7.006;2024-03-17T10:40:34;4.95;;;3.05;;
14907;SDS011;7545;52.092;7.006;2024-03-17T10:43:03;5.45;;;3.40;;
14907;SDS011;7545;52.092;7.006;2024-03-17T10:45:29;7.00;;;4.53;;
14907;SDS011;7545;52.092;7.006;2024-03-17T10:48:06;14.43;;;8.90;;
14907;SDS011;7545;52.092;7.006;2024-03-17T10:50:35;8.35;;;5.22;;
14907;SDS011;7545;52.092;7.006;2024-03-17T10:53:03;6.90;;;3.67;;
14907;SDS011;7545;52.092;7.006;2024-03-17T10:55:37;7.28;;;3.00;;
14907;SDS011;7545;52.092;7.006;2024-03-17T10:58:13;4.10;;;2.92;;
14907;SDS011;7545;52.092;7.006;2024-03-17T11:00:46;5.53;;;4.20;;
14907;SDS011;7545;52.092;7.006;2024-03-17T11:03:12;3.58;;;2.85;;
14907;SDS011;7545;52.092;7.006;2024-03-17T11:05:39;3.47;;;2.40;;
14907;SDS011;7545;52.092;7.006;2024-03-17T11:08:05;4.65;;;3.05;;
14907;SDS011;7545;52.092;7.006;2024-03-17T11:10:35;3.72;;;2.72;;
14907;SDS011;7545;52.092;7.006;2024-03-17T11:13:02;4.28;;;2.60;;
14907;SDS011;7545;52.092;7.006;2024-03-17T11:20:38;3.90;;;3.28;;
14907;SDS011;7545;52.092;7.006;2024-03-17T11:23:05;6.05;;;3.35;;
14907;SDS011;7545;52.092;7.006;2024-03-17T11:30:41;5.00;;;3.53;;
14907;SDS011;7545;52.092;7.006;2024-03-17T11:49:18;5.75;;;3.42;;
14907;SDS011;7545;52.092;7.006;2024-03-17T11:51:46;3.88;;;2.92;;
14907;SDS011;7545;52.092;7.006;2024-03-17T11:54:18;6.63;;;3.90;;
14907;SDS011;7545;52.092;7.006;2024-03-17T11:56:47;5.88;;;3.88;;
14907;SDS011;7545;52.092;7.006;2024-03-17T11:59:14;7.30;;;3.83;;
14907;SDS011;7545;52.092;7.006;2024-03-17T12:01:43;5.68;;;4.90;;
14907;SDS011;7545;52.092;7.006;2024-03-17T12:04:15;5.00;;;4.20;;
14907;SDS011;7545;52.092;7.006;2024-03-17T12:09:17;5.78;;;4.20;;
14907;SDS011;7545;52.092;7.006;2024-03-17T12:11:45;5.57;;;4.65;;
14907;SDS011;7545;52.092;7.006;2024-03-17T12:14:13;5.82;;;3.78;;
14907;SDS011;7545;52.092;7.006;2024-03-17T12:16:50;7.78;;;5.03;;
14907;SDS011;7545;52.092;7.006;2024-03-17T12:19:17;6.60;;;4.13;;
14907;SDS011;7545;52.092;7.006;2024-03-17T12:21:44;8.27;;;4.25;;
14907;SDS011;7545;52.092;7.006;2024-03-17T12:24:15;7.43;;;4.38;;
14907;SDS011;7545;52.092;7.006;2024-03-17T12:26:45;6.50;;;4.57;;
14907;SDS011;7545;52.092;7.006;2024-03-17T12:29:46;9.52;;;4.40;;
14907;SDS011;7545;52.092;7.006;2024-03-17T12:34:38;7.43;;;4.22;;
14907;SDS011;7545;52.092;7.006;2024-03-17T12:37:04;6.10;;;3.92;;
14907;SDS011;7545;52.092;7.006;2024-03-17T12:39:34;8.50;;;4.30;;
14907;SDS011;7545;52.092;7.006;2024-03-17T12:42:06;6.63;;;4.22;;
14907;SDS011;7545;52.092;7.006;2024-03-17T12:44:34;6.32;;;3.92;;
14907;SDS011;7545;52.092;7.006;2024-03-17T12:47:20;6.65;;;4.65;;
14907;SDS011;7545;52.092;7.006;2024-03-17T12:49:56;6.10;;;4.45;;
14907;SDS011;7545;52.092;7.006;2024-03-17T12:52:29;6.75;;;5.47;;
14907;SDS011;7545;52.092;7.006;2024-03-17T12:57:41;5.88;;;4.15;;
14907;SDS011;7545;52.092;7.006;2024-03-17T13:00:36;6.60;;;4.78;;
14907;SDS011;7545;52.092;7.006;2024-03-17T13:03:02;6.28;;;3.35;;
14907;SDS011;7545;52.092;7.006;2024-03-17T13:05:32;8.25;;;4.55;;
14907;SDS011;7545;52.092;7.006;2024-03-17T13:07:59;6.70;;;4.25;;
14907;SDS011;7545;52.092;7.006;2024-03-17T13:10:25;6.05;;;4.00;;
14907;SDS011;7545;52.092;7.006;2024-03-17T13:12:58;5.03;;;3.90;;
14907;SDS011;7545;52.092;7.006;2024-03-17T13:15:32;6.20;;;4.25;;
14907;SDS011;7545;52.092;7.006;2024-03-17T13:18:00;5.50;;;3.17;;
14907;SDS011;7545;52.092;7.006;2024-03-17T13:20:27;4.85;;;3.47;;
14907;SDS011;7545;52.092;7.006;2024-03-17T13:22:53;5.65;;;3.90;;
14907;SDS011;7545;52.092;7.006;2024-03-17T13:25:19;5.22;;;4.10;;
14907;SDS011;7545;52.092;7.006;2024-03-17T13:27:50;7.32;;;4.60;;
14907;SDS011;7545;52.092;7.006;2024-03-17T13:30:17;4.97;;;3.88;;
14907;SDS011;7545;52.092;7.006;2024-03-17T13:32:44;5.35;;;4.20;;
14907;SDS011;7545;52.092;7.006;2024-03-17T13:35:17;8.43;;;4.40;;
14907;SDS011;7545;52.092;7.006;2024-03-17T13:37:48;5.00;;;4.38;;
14907;SDS011;7545;52.092;7.006;2024-03-17T13:40:15;5.18;;;4.05;;
14907;SDS011;7545;52.092;7.006;2024-03-17T13:42:43;4.53;;;3.72;;
14907;SDS011;7545;52.092;7.006;2024-03-17T13:45:10;5.72;;;4.18;;
14907;SDS011;7545;52.092;7.006;2024-03-17T13:47:39;6.38;;;4.22;;
14907;SDS011;7545;52.092;7.006;2024-03-17T13:50:06;5.15;;;4.30;;
14907;SDS011;7545;52.092;7.006;2024-03-17T13:52:39;7.78;;;4.82;;
14907;SDS011;7545;52.092;7.006;2024-03-17T13:55:05;8.00;;;5.90;;
14907;SDS011;7545;52.092;7.006;2024-03-17T13:57:32;6.15;;;4.00;;
14907;SDS011;7545;52.092;7.006;2024-03-17T13:59:58;6.55;;;4.68;;
14907;SDS011;7545;52.092;7.006;2024-03-17T14:02:24;7.75;;;4.53;;
14907;SDS011;7545;52.092;7.006;2024-03-17T14:04:50;6.07;;;3.78;;
14907;SDS011;7545;52.092;7.006;2024-03-17T14:07:15;6.00;;;4.57;;
14907;SDS011;7545;52.092;7.006;2024-03-17T14:09:41;5.13;;;4.07;;
14907;SDS011;7545;52.092;7.006;2024-03-17T14:12:09;5.45;;;4.40;;
14907;SDS011;7545;52.092;7.006;2024-03-17T14:14:35;8.73;;;4.45;;
14907;SDS011;7545;52.092;7.006;2024-03-17T14:17:00;7.35;;;4.05;;
14907;SDS011;7545;52.092;7.006;2024-03-17T14:19:26;6.95;;;4.00;;
14907;SDS011;7545;52.092;7.006;2024-03-17T14:21:52;5.43;;;3.50;;
14907;SDS011;7545;52.092;7.006;2024-03-17T14:26:43;5.78;;;4.20;;
14907;SDS011;7545;52.092;7.006;2024-03-17T14:29:08;4.45;;;3.92;;
14907;SDS011;7545;52.092;7.006;2024-03-17T14:31:34;5.22;;;4.32;;
14907;SDS011;7545;52.092;7.006;2024-03-17T14:34:02;6.18;;;4.10;;
14907;SDS011;7545;52.092;7.006;2024-03-17T14:36:30;6.03;;;4.20;;
14907;SDS011;7545;52.092;7.006;2024-03-17T14:38:59;6.70;;;4.63;;
14907;SDS011;7545;52.092;7.006;2024-03-17T14:41:27;6.78;;;4.38;;
14907;SDS011;7545;52.092;7.006;2024-03-17T14:43:55;9.10;;;4.55;;
14907;SDS011;7545;52.092;7.006;2024-03-17T14:46:22;6.47;;;4.63;;
14907;SDS011;7545;52.092;7.006;2024-03-17T14:48:50;5.88;;;4.10;;
14907;SDS011;7545;52.092;7.006;2024-03-17T14:51:17;7.82;;;4.47;;
14907;SDS011;7545;52.092;7.006;2024-03-17T14:53:43;6.75;;;4.82;;
14907;SDS011;7545;52.092;7.006;2024-03-17T14:56:16;4.72;;;3.90;;
14907;SDS011;7545;52.092;7.006;2024-03-17T14:58:42;6.25;;;4.20;;
14907;SDS011;7545;52.092;7.006;2024-03-17T15:01:09;6.00;;;4.65;;
14907;SDS011;7545;52.092;7.006;2024-03-17T15:03:35;7.45;;;4.15;;
14907;SDS011;7545;52.092;7.006;2024-03-17T15:06:01;5.70;;;4.20;;
14907;SDS011;7545;52.092;7.006;2024-03-17T15:08:29;6.50;;;4.53;;
14907;SDS011;7545;52.092;7.006;2024-03-17T15:10:55;5.13;;;4.07;;
14907;SDS011;7545;52.092;7.006;2024-03-17T15:13:21;5.13;;;4.30;;
14907;SDS011;7545;52.092;7.006;2024-03-17T15:15:48;11.18;;;4.93;;
14907;SDS011;7545;52.092;7.006;2024-03-17T15:18:14;6.28;;;4.43;;
14907;SDS011;7545;52.092;7.006;2024-03-17T15:20:41;6.15;;;4.43;;
14907;SDS011;7545;52.092;7.006;2024-03-17T15:23:06;7.30;;;4.10;;
14907;SDS011;7545;52.092;7.006;2024-03-17T15:25:32;5.65;;;4.80;;
14907;SDS011;7545;52.092;7.006;2024-03-17T15:27:58;8.57;;;4.38;;
14907;SDS011;7545;52.092;7.006;2024-03-17T15:30:25;9.15;;;4.65;;
14907;SDS011;7545;52.092;7.006;2024-03-17T15:32:54;7.03;;;4.53;;
14907;SDS011;7545;52.092;7.006;2024-03-17T15:35:20;4.30;;;3.85;;
14907;SDS011;7545;52.092;7.006;2024-03-17T15:37:46;6.22;;;3.92;;
14907;SDS011;7545;52.092;7.006;2024-03-17T15:40:13;4.72;;;4.10;;
14907;SDS011;7545;52.092;7.006;2024-03-17T15:42:42;6.97;;;4.13;;
14907;SDS011;7545;52.092;7.006;2024-03-17T15:45:14;5.78;;;4.00;;